createdAt,value
2018-03-19T00:01:27.705Z,57.86
2018-03-19T00:03:53.894Z,57.02
2018-03-19T00:06:20.115Z,57.30
2018-03-19T00:08:46.363Z,57.53
2018-03-19T00:11:12.554Z,57.86
2018-03-19T00:13:38.803Z,57.04
2018-03-19T00:16:05.018Z,57.87
2018-03-19T00:18:31.194Z,56.92
2018-03-19T00:20:57.387Z,56.91
2018-03-19T00:23:23.630Z,56.40
2018-03-19T00:25:49.812Z,56.64
2018-03-19T00:28:15.982Z,56.81
2018-03-19T00:30:42.176Z,57.13
2018-03-19T00:33:08.876Z,58.11
2018-03-19T00:35:35.061Z,58.17
2018-03-19T00:38:01.237Z,58.34
2018-03-19T00:40:27.396Z,58.45
2018-03-19T00:42:53.641Z,58.18
2018-03-19T00:45:19.805Z,58.07
2018-03-19T00:47:45.990Z,58.14
2018-03-19T00:50:12.163Z,58.04
2018-03-19T00:52:38.437Z,58.40
2018-03-19T00:55:04.607Z,58.11
2018-03-19T00:57:30.806Z,58.50
2018-03-19T00:59:57.026Z,57.66
2018-03-19T01:02:23.262Z,58.52
2018-03-19T01:04:49.509Z,58.16
2018-03-19T01:07:15.706Z,58.41
2018-03-19T01:09:41.873Z,58.68
2018-03-19T01:12:08.105Z,58.55
2018-03-19T01:14:34.309Z,58.50
2018-03-19T01:17:00.489Z,57.93
2018-03-19T01:19:27.230Z,58.14
2018-03-19T01:21:53.363Z,58.37
2018-03-19T01:24:19.619Z,58.38
2018-03-19T01:26:45.785Z,58.76
2018-03-19T01:29:12.853Z,58.42
2018-03-19T01:31:39.036Z,58.64
2018-03-19T01:34:05.289Z,58.44
2018-03-19T01:36:31.479Z,58.49
2018-03-19T01:38:57.610Z,58.32
2018-03-19T01:41:24.184Z,58.43
2018-03-19T01:43:50.388Z,57.76
2018-03-19T01:46:16.571Z,58.47
2018-03-19T01:48:42.732Z,57.69
2018-03-19T01:51:08.952Z,57.51
2018-03-19T01:53:35.205Z,56.76
2018-03-19T01:56:01.419Z,56.92
2018-03-19T01:58:27.593Z,56.66
2018-03-19T02:00:53.808Z,56.58
2018-03-19T02:03:20.073Z,56.04
2018-03-19T02:05:46.239Z,55.38
2018-03-19T02:08:12.414Z,55.27
2018-03-19T02:10:38.578Z,55.44
2018-03-19T02:13:04.798Z,54.50
2018-03-19T02:15:31.811Z,55.17
2018-03-19T02:17:58.001Z,54.86
2018-03-19T02:20:24.250Z,55.10
2018-03-19T02:22:50.509Z,53.96
2018-03-19T02:25:16.699Z,53.92
2018-03-19T02:27:42.877Z,54.00
2018-03-19T02:30:09.094Z,54.18
2018-03-19T02:32:35.326Z,54.95
2018-03-19T02:35:01.566Z,54.22
2018-03-19T02:37:27.715Z,53.76
2018-03-19T02:39:53.922Z,54.07
2018-03-19T02:42:20.179Z,53.35
2018-03-19T02:44:46.456Z,53.46
2018-03-19T02:47:12.699Z,54.51
2018-03-19T02:49:38.871Z,53.34
2018-03-19T02:52:05.041Z,53.89
2018-03-19T02:54:31.256Z,53.22
2018-03-19T02:56:57.419Z,53.68
2018-03-19T02:59:23.555Z,53.84
2018-03-19T03:01:49.780Z,53.54
2018-03-19T03:04:16.024Z,54.04
2018-03-19T03:06:42.263Z,54.63
2018-03-19T03:09:08.931Z,53.91
2018-03-19T03:11:35.101Z,53.99
2018-03-19T03:14:01.321Z,54.61
2018-03-19T03:16:27.588Z,54.81
2018-03-19T03:18:53.768Z,54.98
2018-03-19T03:21:19.930Z,54.38
2018-03-19T03:23:46.111Z,54.63
2018-03-19T03:26:12.237Z,55.13
2018-03-19T03:28:38.344Z,54.19
2018-03-19T03:31:04.488Z,54.50
2018-03-19T03:33:30.660Z,54.54
2018-03-19T03:35:56.825Z,54.67
2018-03-19T03:38:22.962Z,54.72
2018-03-19T03:40:49.052Z,55.20
2018-03-19T03:43:15.230Z,54.79
2018-03-19T03:45:41.361Z,54.46
2018-03-19T03:48:07.471Z,55.16
2018-03-19T03:50:33.609Z,54.95
2018-03-19T03:52:59.775Z,54.77
2018-03-19T03:55:25.900Z,54.95
2018-03-19T03:57:51.992Z,54.94
2018-03-19T04:00:18.132Z,54.83
2018-03-19T04:02:44.247Z,54.37
2018-03-19T04:05:10.482Z,54.80
2018-03-19T04:07:36.613Z,55.21
2018-03-19T04:10:02.848Z,54.77
2018-03-19T04:12:28.968Z,54.54
2018-03-19T04:14:55.152Z,54.53
2018-03-19T04:17:21.328Z,55.33
2018-03-19T04:19:47.429Z,55.35
2018-03-19T04:22:13.549Z,55.27
2018-03-19T04:24:39.738Z,55.44
2018-03-19T04:27:05.848Z,54.65
2018-03-19T04:29:31.943Z,54.75
2018-03-19T04:31:58.121Z,55.36
2018-03-19T04:34:24.307Z,56.04
2018-03-19T04:36:50.429Z,55.55
2018-03-19T04:39:16.555Z,55.43
2018-03-19T04:41:42.671Z,56.33
2018-03-19T04:44:08.879Z,56.19
2018-03-19T04:46:34.993Z,55.58
2018-03-19T04:49:01.105Z,55.54
2018-03-19T04:51:27.230Z,56.35
2018-03-19T04:53:53.391Z,55.98
2018-03-19T04:56:19.531Z,56.45
2018-03-19T04:58:45.645Z,56.04
2018-03-19T05:01:11.780Z,56.81
2018-03-19T05:03:37.951Z,55.44
2018-03-19T05:06:04.113Z,55.86
2018-03-19T05:08:30.229Z,55.23
2018-03-19T05:10:56.369Z,55.70
2018-03-19T05:13:22.589Z,56.09
2018-03-19T05:15:48.686Z,55.73
2018-03-19T05:18:14.791Z,55.50
2018-03-19T05:20:40.936Z,55.48
2018-03-19T05:23:07.104Z,56.16
2018-03-19T05:25:33.221Z,55.61
2018-03-19T05:27:59.375Z,55.88
2018-03-19T05:30:25.500Z,54.88
2018-03-19T05:32:51.624Z,55.87
2018-03-19T05:35:17.808Z,55.05
2018-03-19T05:37:43.945Z,55.64
2018-03-19T05:40:10.060Z,55.19
2018-03-19T05:42:36.200Z,56.33
2018-03-19T05:45:02.393Z,55.40
2018-03-19T05:47:28.511Z,55.58
2018-03-19T05:49:54.656Z,55.36
2018-03-19T05:52:20.857Z,55.92
2018-03-19T05:54:47.000Z,56.45
2018-03-19T05:57:13.109Z,54.91
2018-03-19T05:59:39.237Z,54.96
2018-03-19T06:02:05.335Z,55.62
2018-03-19T06:04:31.508Z,54.84
2018-03-19T06:06:57.599Z,55.22
2018-03-19T06:09:23.719Z,55.08
2018-03-19T06:11:49.905Z,55.66
2018-03-19T06:14:16.119Z,55.68
2018-03-19T06:16:42.210Z,55.27
2018-03-19T06:19:08.324Z,55.16
2018-03-19T06:21:34.495Z,55.06
2018-03-19T06:24:00.640Z,54.94
2018-03-19T06:26:26.764Z,55.29
2018-03-19T06:28:52.928Z,54.88
2018-03-19T06:31:19.023Z,55.04
2018-03-19T06:33:45.228Z,56.22
2018-03-19T06:36:11.387Z,55.33
2018-03-19T06:38:37.537Z,55.24
2018-03-19T06:41:03.691Z,55.30
2018-03-19T06:43:29.858Z,55.68
2018-03-19T06:45:55.965Z,56.08
2018-03-19T06:48:22.053Z,55.64
2018-03-19T06:50:48.209Z,55.70
2018-03-19T06:53:14.420Z,56.08
2018-03-19T06:55:40.577Z,55.58
2018-03-19T06:58:06.738Z,55.19
2018-03-19T07:00:32.861Z,55.63
2018-03-19T07:02:58.959Z,55.16
2018-03-19T07:05:25.151Z,55.20
2018-03-19T07:07:51.267Z,55.09
2018-03-19T07:10:17.402Z,54.89
2018-03-19T07:12:43.556Z,56.24
2018-03-19T07:15:09.739Z,55.11
2018-03-19T07:17:35.864Z,55.61
2018-03-19T07:20:02.053Z,54.68
2018-03-19T07:22:28.175Z,54.86
2018-03-19T07:24:54.386Z,54.99
2018-03-19T07:27:20.505Z,55.17
2018-03-19T07:29:46.701Z,54.39
2018-03-19T07:32:12.866Z,55.24
2018-03-19T07:34:39.043Z,55.23
2018-03-19T07:37:05.266Z,54.73
2018-03-19T07:39:31.407Z,55.46
2018-03-19T07:41:57.539Z,54.75
2018-03-19T07:44:23.707Z,54.92
2018-03-19T07:46:49.851Z,54.81
2018-03-19T07:49:15.990Z,54.99
2018-03-19T07:51:42.103Z,54.62
2018-03-19T07:54:08.900Z,54.57
2018-03-19T07:56:35.022Z,54.72
2018-03-19T07:59:01.475Z,54.82
2018-03-19T08:01:27.707Z,54.67
2018-03-19T08:03:53.910Z,55.37
2018-03-19T08:06:20.078Z,54.46
2018-03-19T08:08:46.236Z,54.05
2018-03-19T08:11:12.406Z,53.88
2018-03-19T08:13:38.511Z,53.72
2018-03-19T08:16:06.983Z,54.40
2018-03-19T08:18:33.098Z,53.58
2018-03-19T08:20:59.209Z,53.50
2018-03-19T08:23:25.401Z,54.21
2018-03-19T08:25:51.582Z,55.00
2018-03-19T08:28:17.695Z,53.96
2018-03-19T08:30:43.823Z,54.20
2018-03-19T08:33:09.951Z,53.80
2018-03-19T08:35:36.121Z,53.37
2018-03-19T08:38:03.245Z,53.46
2018-03-19T08:40:29.351Z,54.00
2018-03-19T08:42:55.494Z,53.13
2018-03-19T08:45:21.627Z,53.68
2018-03-19T08:47:47.755Z,53.62
2018-03-19T08:50:13.992Z,53.50
2018-03-19T08:52:40.096Z,52.87
2018-03-19T08:55:06.255Z,54.08
2018-03-19T08:57:32.411Z,53.75
2018-03-19T08:59:58.559Z,53.40
2018-03-19T09:02:24.691Z,51.83
2018-03-19T09:04:50.874Z,51.86
2018-03-19T09:07:17.076Z,51.43
2018-03-19T09:09:43.173Z,52.72
2018-03-19T09:12:09.310Z,52.22
2018-03-19T09:14:35.514Z,52.40
2018-03-19T09:17:01.627Z,52.36
2018-03-19T09:19:27.757Z,52.69
2018-03-19T09:21:53.927Z,51.70
2018-03-19T09:24:20.156Z,51.41
2018-03-19T09:26:46.306Z,51.31
2018-03-19T09:29:12.485Z,51.43
2018-03-19T09:31:38.657Z,50.70
2018-03-19T09:34:04.781Z,50.43
2018-03-19T09:36:30.950Z,50.38
2018-03-19T09:38:57.152Z,50.42
2018-03-19T09:41:23.297Z,49.82
2018-03-19T09:43:49.445Z,49.43
2018-03-19T09:46:15.620Z,50.19
2018-03-19T09:48:41.763Z,49.19
2018-03-19T09:51:07.931Z,50.99
2018-03-19T09:53:34.126Z,49.20
2018-03-19T09:56:00.419Z,49.60
2018-03-19T09:58:26.528Z,49.81
2018-03-19T10:00:52.668Z,50.08
2018-03-19T10:03:18.778Z,49.55
2018-03-19T10:05:45.007Z,50.09
2018-03-19T10:08:11.573Z,49.14
2018-03-19T10:10:37.735Z,49.09
2018-03-19T10:13:03.848Z,49.29
2018-03-19T10:15:30.016Z,49.79
2018-03-19T10:17:56.125Z,49.95
2018-03-19T10:20:22.250Z,49.91
2018-03-19T10:22:48.454Z,49.83
2018-03-19T10:25:14.650Z,50.05
2018-03-19T10:27:40.795Z,49.09
2018-03-19T10:30:06.919Z,49.16
2018-03-19T10:32:33.060Z,49.73
2018-03-19T10:34:59.260Z,47.19
2018-03-19T10:37:25.374Z,46.67
2018-03-19T10:39:51.530Z,48.88
2018-03-19T10:42:17.652Z,46.72
2018-03-19T10:44:43.854Z,48.54
2018-03-19T10:47:09.979Z,48.53
2018-03-19T10:49:36.096Z,48.00
2018-03-19T10:52:02.225Z,48.75
2018-03-19T10:54:28.344Z,47.95
2018-03-19T10:56:54.808Z,46.87
2018-03-19T10:59:20.957Z,47.49
2018-03-19T11:01:47.092Z,47.67
2018-03-19T11:04:14.067Z,50.03
2018-03-19T11:06:44.309Z,49.02
2018-03-19T11:09:16.449Z,48.93
2018-03-19T11:11:42.550Z,47.89
2018-03-19T11:14:09.626Z,47.51
2018-03-19T11:16:35.793Z,48.29
2018-03-19T11:19:01.904Z,47.90
2018-03-19T11:21:28.067Z,48.85
2018-03-19T11:23:54.168Z,49.70
2018-03-19T11:26:20.380Z,48.85
2018-03-19T11:28:46.512Z,47.73
2018-03-19T11:31:12.654Z,48.83
2018-03-19T11:33:38.828Z,48.10
2018-03-19T11:36:05.021Z,49.32
2018-03-19T11:38:31.165Z,49.34
2018-03-19T11:40:57.310Z,48.55
2018-03-19T11:43:23.513Z,48.39
2018-03-19T11:45:49.687Z,49.12
2018-03-19T11:48:15.845Z,48.71
2018-03-19T11:50:42.006Z,50.08
2018-03-19T11:53:08.161Z,50.13
2018-03-19T11:55:34.321Z,49.06
2018-03-19T11:58:00.543Z,49.10
2018-03-19T12:00:26.676Z,49.00
2018-03-19T12:02:52.864Z,48.54
2018-03-19T12:05:19.085Z,49.86
2018-03-19T12:07:45.393Z,49.17
2018-03-19T12:10:11.519Z,48.76
2018-03-19T12:12:37.704Z,50.74
2018-03-19T12:15:03.957Z,49.95
2018-03-19T12:17:30.125Z,47.95
2018-03-19T12:19:56.256Z,47.07
2018-03-19T12:22:22.440Z,47.08
2018-03-19T12:24:48.599Z,46.18
2018-03-19T12:27:14.792Z,46.13
2018-03-19T12:29:40.974Z,45.82
2018-03-19T12:32:07.127Z,45.57
2018-03-19T12:34:33.360Z,43.83
2018-03-19T12:36:59.565Z,45.64
2018-03-19T12:39:25.708Z,45.87
2018-03-19T12:41:51.863Z,45.08
2018-03-19T12:44:17.995Z,45.03
2018-03-19T12:46:44.183Z,44.24
2018-03-19T12:49:10.347Z,45.74
2018-03-19T12:51:36.473Z,44.20
2018-03-19T12:54:02.620Z,44.19
2018-03-19T12:56:29.187Z,43.83
2018-03-19T12:58:55.429Z,43.26
2018-03-19T13:01:21.654Z,41.83
2018-03-19T13:03:47.793Z,41.14
2018-03-19T13:06:14.067Z,40.16
2018-03-19T13:08:40.264Z,39.82
2018-03-19T13:11:06.468Z,40.40
2018-03-19T13:13:32.688Z,39.78
2018-03-19T13:15:58.907Z,40.13
2018-03-19T13:18:25.050Z,39.92
2018-03-19T13:20:51.245Z,40.05
2018-03-19T13:23:17.400Z,41.71
2018-03-19T13:25:43.669Z,42.09
2018-03-19T13:28:09.845Z,43.22
2018-03-19T13:30:36.055Z,45.56
2018-03-19T13:33:02.207Z,45.01
2018-03-19T13:35:28.405Z,43.83
2018-03-19T13:37:54.626Z,42.92
2018-03-19T13:40:20.784Z,42.26
2018-03-19T13:42:46.952Z,41.98
2018-03-19T13:45:13.147Z,42.04
2018-03-19T13:47:39.351Z,43.59
2018-03-19T13:50:05.496Z,44.10
2018-03-19T13:52:31.702Z,44.01
2018-03-19T13:54:57.903Z,44.25
2018-03-19T13:57:24.109Z,45.15
2018-03-19T13:59:50.360Z,46.28
2018-03-19T14:02:16.551Z,45.54
2018-03-19T14:04:42.773Z,46.13
2018-03-19T14:07:09.100Z,46.94
2018-03-19T14:09:35.263Z,46.49
2018-03-19T14:12:01.452Z,46.56
2018-03-19T14:14:27.623Z,46.24
2018-03-19T14:16:53.840Z,46.76
2018-03-19T14:19:20.022Z,46.59
2018-03-19T14:21:46.210Z,46.95
2018-03-19T14:24:12.370Z,47.63
2018-03-19T14:26:38.749Z,47.77
2018-03-19T14:29:04.929Z,48.17
2018-03-19T14:31:31.079Z,47.34
2018-03-19T14:33:57.270Z,47.16
2018-03-19T14:36:23.495Z,47.86
2018-03-19T14:38:49.731Z,49.31
2018-03-19T14:41:15.887Z,48.47
2018-03-19T14:43:42.089Z,47.79
2018-03-19T14:46:08.334Z,48.71
2018-03-19T14:48:34.508Z,48.43
2018-03-19T14:51:00.676Z,47.40
2018-03-19T14:53:26.894Z,47.51
2018-03-19T14:55:53.072Z,46.46
2018-03-19T14:58:19.277Z,46.70
2018-03-19T15:00:45.495Z,46.09
2018-03-19T15:03:11.675Z,46.58
2018-03-19T15:05:37.974Z,47.09
2018-03-19T15:08:04.172Z,47.97
2018-03-19T15:10:30.405Z,48.77
2018-03-19T15:12:56.616Z,48.17
2018-03-19T15:15:22.767Z,49.36
2018-03-19T15:17:48.982Z,49.10
2018-03-19T15:20:15.168Z,48.94
2018-03-19T15:22:41.391Z,48.86
2018-03-19T15:25:07.648Z,50.03
2018-03-19T15:27:33.866Z,50.22
2018-03-19T15:30:01.000Z,49.06
2018-03-19T15:32:27.210Z,50.03
2018-03-19T15:34:53.588Z,50.58
2018-03-19T15:37:19.812Z,50.28
2018-03-19T15:39:46.010Z,49.48
2018-03-19T15:42:12.194Z,49.34
2018-03-19T15:44:38.350Z,48.16
2018-03-19T15:47:04.580Z,49.16
2018-03-19T15:49:30.757Z,48.71
2018-03-19T15:51:56.924Z,49.09
2018-03-19T15:54:23.126Z,49.80
2018-03-19T15:56:49.350Z,49.82
2018-03-19T15:59:15.488Z,50.05
2018-03-19T16:01:41.734Z,49.00
2018-03-19T16:04:07.880Z,49.36
2018-03-19T16:06:34.107Z,48.82
2018-03-19T16:09:00.279Z,48.53
2018-03-19T16:11:26.423Z,49.02
2018-03-19T16:13:52.572Z,49.66
2018-03-19T16:16:18.785Z,47.08
2018-03-19T16:18:45.065Z,47.82
2018-03-19T16:21:11.231Z,48.55
2018-03-19T16:23:37.449Z,47.80
2018-03-19T16:26:03.746Z,48.03
2018-03-19T16:28:29.999Z,49.07
2018-03-19T16:30:56.127Z,49.78
2018-03-19T16:33:22.337Z,48.71
2018-03-19T16:35:48.555Z,49.52
2018-03-19T16:38:14.809Z,49.61
2018-03-19T16:40:40.997Z,49.75
2018-03-19T16:43:07.151Z,48.57
2018-03-19T16:45:33.344Z,48.98
2018-03-19T16:47:59.700Z,47.77
2018-03-19T16:50:25.890Z,48.06
2018-03-19T16:52:52.017Z,48.81
2018-03-19T16:55:18.203Z,49.66
2018-03-19T16:57:44.473Z,49.46
2018-03-19T17:00:10.627Z,49.40
2018-03-19T17:02:36.780Z,48.46
2018-03-19T17:05:03.015Z,49.77
2018-03-19T17:07:29.291Z,49.09
2018-03-19T17:09:55.433Z,49.77
2018-03-19T17:12:21.569Z,48.98
2018-03-19T17:14:47.774Z,50.38
2018-03-19T17:17:14.079Z,50.37
2018-03-19T17:19:40.211Z,51.11
2018-03-19T17:22:06.430Z,50.35
2018-03-19T17:24:32.598Z,51.22
2018-03-19T17:26:58.780Z,50.52
2018-03-19T17:29:25.048Z,50.94
2018-03-19T17:31:51.226Z,52.11
2018-03-19T17:34:17.409Z,52.35
2018-03-19T17:36:43.635Z,52.44
2018-03-19T17:39:09.861Z,52.89
2018-03-19T17:41:36.205Z,52.52
2018-03-19T17:44:02.344Z,52.77
2018-03-19T17:46:28.535Z,53.63
2018-03-19T17:48:55.243Z,53.74
2018-03-19T17:51:21.409Z,54.10
2018-03-19T17:53:47.606Z,54.68
2018-03-19T17:56:14.253Z,55.02
2018-03-19T17:58:40.527Z,55.23
2018-03-19T18:01:06.738Z,55.55
2018-03-19T18:03:33.012Z,55.41
2018-03-19T18:05:59.254Z,55.45
2018-03-19T18:08:25.463Z,55.81
2018-03-19T18:10:51.638Z,55.91
2018-03-19T18:13:17.805Z,56.02
2018-03-19T18:15:43.986Z,56.26
2018-03-19T18:18:10.259Z,56.34
2018-03-19T18:20:36.417Z,56.43
2018-03-19T18:23:02.592Z,56.36
2018-03-19T18:25:28.899Z,56.36
2018-03-19T18:27:55.158Z,57.68
2018-03-19T18:30:21.364Z,57.36
2018-03-19T18:32:47.646Z,57.53
2018-03-19T18:35:13.865Z,59.37
2018-03-19T18:37:40.231Z,60.05
2018-03-19T18:40:06.419Z,59.12
2018-03-19T18:42:32.586Z,58.61
2018-03-19T18:44:58.800Z,58.59
2018-03-19T18:47:25.042Z,60.17
2018-03-19T18:49:51.293Z,59.11
2018-03-19T18:52:17.562Z,60.14
2018-03-19T18:54:43.883Z,60.39
2018-03-19T18:57:10.322Z,59.72
2018-03-19T18:59:36.610Z,60.17
2018-03-19T19:02:02.898Z,60.16
2018-03-19T19:04:29.221Z,61.17
2018-03-19T19:06:55.494Z,60.16
2018-03-19T19:09:21.844Z,61.09
2018-03-19T19:11:48.047Z,60.12
2018-03-19T19:14:14.311Z,59.77
2018-03-19T19:16:40.536Z,59.62
2018-03-19T19:19:06.863Z,61.28
2018-03-19T19:21:33.098Z,60.60
2018-03-19T19:23:59.283Z,61.29
2018-03-19T19:26:25.514Z,61.34
2018-03-19T19:28:51.819Z,59.69
2018-03-19T19:31:17.984Z,59.77
2018-03-19T19:33:44.247Z,59.63
2018-03-19T19:36:10.510Z,59.77
2018-03-19T19:38:36.946Z,60.75
2018-03-19T19:41:03.185Z,60.71
2018-03-19T19:43:29.404Z,60.66
2018-03-19T19:45:55.645Z,61.46
2018-03-19T19:48:21.905Z,60.04
2018-03-19T19:50:48.134Z,59.66
2018-03-19T19:53:14.297Z,59.12
2018-03-19T19:55:40.588Z,58.90
2018-03-19T19:58:06.850Z,58.53
2018-03-19T20:00:33.129Z,58.20
2018-03-19T20:02:59.386Z,55.07
2018-03-19T20:05:25.642Z,55.50
2018-03-19T20:07:51.859Z,54.65
2018-03-19T20:10:18.183Z,55.01
2018-03-19T20:12:44.377Z,54.30
2018-03-19T20:15:10.606Z,54.49
2018-03-19T20:17:36.887Z,53.96
2018-03-19T20:20:03.177Z,53.64
2018-03-19T20:22:29.414Z,53.96
2018-03-19T20:24:55.588Z,52.79
2018-03-19T20:27:21.843Z,52.84
2018-03-19T20:29:48.196Z,52.03
2018-03-19T20:32:14.375Z,52.94
2018-03-19T20:34:40.754Z,52.26
2018-03-19T20:37:07.008Z,51.88
2018-03-19T20:39:33.265Z,50.97
2018-03-19T20:41:59.462Z,52.96
2018-03-19T20:44:25.700Z,50.41
2018-03-19T20:46:52.667Z,51.30
2018-03-19T20:49:18.902Z,50.26
2018-03-19T20:51:45.125Z,51.36
2018-03-19T20:54:11.328Z,51.60
2018-03-19T20:56:37.576Z,50.23
2018-03-19T20:59:03.826Z,49.87
2018-03-19T21:01:30.157Z,49.19
2018-03-19T21:03:56.365Z,50.25
2018-03-19T21:06:22.656Z,49.03
2018-03-19T21:08:48.893Z,49.55
2018-03-19T21:11:15.098Z,49.17
2018-03-19T21:13:41.287Z,49.57
2018-03-19T21:16:07.473Z,48.58
2018-03-19T21:18:33.758Z,48.21
2018-03-19T21:20:59.911Z,49.70
2018-03-19T21:23:26.086Z,49.95
2018-03-19T21:25:52.276Z,48.74
2018-03-19T21:28:18.433Z,49.50
2018-03-19T21:30:44.647Z,49.04
2018-03-19T21:33:10.843Z,49.68
2018-03-19T21:35:37.187Z,50.02
2018-03-19T21:38:03.402Z,49.04
2018-03-19T21:40:29.604Z,49.21
2018-03-19T21:42:55.754Z,50.18
2018-03-19T21:45:21.973Z,50.13
2018-03-19T21:47:48.154Z,49.80
2018-03-19T21:50:14.420Z,50.34
2018-03-19T21:52:40.814Z,50.70
2018-03-19T21:55:06.969Z,51.43
2018-03-19T21:57:33.158Z,51.35
2018-03-19T21:59:59.369Z,51.43
2018-03-19T22:02:25.713Z,51.46
2018-03-19T22:04:51.979Z,51.55
2018-03-19T22:07:18.135Z,52.07
2018-03-19T22:09:44.390Z,51.42
2018-03-19T22:12:10.573Z,52.19
2018-03-19T22:14:36.764Z,53.52
2018-03-19T22:17:02.970Z,53.17
2018-03-19T22:19:29.386Z,54.04
2018-03-19T22:21:55.567Z,53.97
2018-03-19T22:24:21.769Z,55.16
2018-03-19T22:26:47.969Z,55.76
2018-03-19T22:29:14.182Z,57.31
2018-03-19T22:31:40.386Z,57.83
2018-03-19T22:34:06.567Z,58.73
2018-03-19T22:36:32.766Z,59.52
2018-03-19T22:38:58.997Z,60.42
2018-03-19T22:41:25.156Z,61.09
2018-03-19T22:43:51.342Z,62.22
2018-03-19T22:46:17.530Z,62.90
2018-03-19T22:48:43.769Z,63.51
2018-03-19T22:51:09.997Z,63.02
2018-03-19T22:53:36.177Z,62.94
2018-03-19T22:56:02.318Z,63.94
2018-03-19T22:58:28.479Z,63.18
2018-03-19T23:00:54.717Z,63.79
2018-03-19T23:03:20.878Z,63.94
2018-03-19T23:05:47.082Z,62.04
2018-03-19T23:08:13.233Z,61.95
2018-03-19T23:10:39.431Z,62.21
2018-03-19T23:13:05.668Z,62.15
2018-03-19T23:15:31.861Z,61.96
2018-03-19T23:17:58.019Z,62.70
2018-03-19T23:20:24.284Z,62.47
2018-03-19T23:22:50.493Z,62.75
2018-03-19T23:25:16.660Z,63.13
2018-03-19T23:27:42.859Z,62.79
2018-03-19T23:30:09.091Z,63.05
2018-03-19T23:32:35.323Z,64.07
2018-03-19T23:35:01.523Z,64.09
2018-03-19T23:37:27.741Z,64.36
2018-03-19T23:39:53.956Z,64.45
2018-03-19T23:42:20.127Z,64.33
2018-03-19T23:44:46.315Z,64.77
2018-03-19T23:47:12.485Z,64.86
2018-03-19T23:49:38.727Z,65.05
2018-03-19T23:52:04.924Z,64.78
2018-03-19T23:54:31.096Z,64.18
2018-03-19T23:56:57.276Z,63.56
2018-03-19T23:59:23.506Z,63.85
